ENGLEBRIGHT (USACE) (ENG)

Elevation: 551' · YUBA R basin · Operator: US Army Corps of Engineers

Provisional data, subject to change.
Query executed Wednesday at 11:55:11   clock

Select a sensor type for a plot of data.
Note: Reservoir Flows are daily averages.

Earlier

Date RES ELE    STORAGE    RES CHG    OUTFLOW    INFLOW    PPT INC   
 FEET   AF   AF   CFS   CFS   INCHES  
10/27/2014 522.29 66203 133 -- 882 0.00
10/28/2014 522.37 66265 62 -- 846 0.00
10/29/2014 522.61 66453 188 -- 911 0.00
10/30/2014 522.50 66367 -86 -- 772 0.00
10/31/2014 522.28 66195 -172 -- 728 0.46
11/01/2014 521.29 65425 -770 -- 426 0.54
11/02/2014 520.73 64993 -432 -- -- 0.00
11/03/2014 520.64 64924 -69 -- 777 0.00
11/04/2014 520.83 65070 146 -- 885 0.00
11/05/2014 521.08 65263 193 -- 913 0.00
11/06/2014 521.14 65309 46 -- 839 0.00
11/07/2014 520.84 65078 -231 -- 699 0.00
11/08/2014 520.60 64893 -185 -- 720 0.00
11/09/2014 519.69 64196 -697 -- 461 0.00
11/10/2014 519.22 63838 -358 -- 630 0.00
11/11/2014 518.92 63610 -228 -- 694 0.00
11/12/2014 519.26 63868 258 -- 939 0.00
11/13/2014 520.49 64808 940 -- 1285 0.59
11/14/2014 521.55 65627 819 -- 1227 0.00
11/15/2014 521.79 65813 186 -- 94 0.00
11/16/2014 521.78 65805 -8 -- 4 0.00
11/17/2014 522.56 66414 609 -- 1091 0.00
11/18/2014 522.28 66195 -219 -- 675 0.00
11/19/2014 522.08 66039 -156 -- 703 0.06
11/20/2014 522.64 66477 438 -- 998 0.12
11/21/2014 522.70 66524 -- -- 24 0.00
11/22/2014 523.01 66767 -- -- 880 0.45
11/23/2014 523.18 66901 -- -- 815 0.00
11/24/2014 523.82 67406 505 -- 986 0.00
11/25/2014 523.68 67296 -110 -- 661 0.00
11/26/2014 -- -- -- -- -- --

Later | Latest

Warning! This data is preliminary and subject to revision.

Show ENG Map | Plot ENG Data | 1 Month ENG Data | Real-Time ENG Data | ENG Info